Time;durP1;ratioP1;P1;durP2;ratioP2;P2;SDS_P1;SDS_P2;PMS_P1;PMS_P2;Temp;Humidity;BMP_temperature;BMP_pressure;BME280_temperature;BME280_humidity;BME280_pressure;Samples;Min_cycle;Max_cycle;Signal;HPM_P1;HPM_P2
2021/12/24 00:01:40;;;;;;;45.03;28.27;;;;;;;-2.10;67.86;92980.44;5068927;28;20224;-89
2021/12/24 00:04:09;;;;;;;46.13;30.13;;;;;;;-2.10;67.13;92959.97;5067968;28;20189;-86
2021/12/24 00:06:35;;;;;;;42.87;29.37;;;;;;;-2.85;69.33;92936.38;5068083;28;20233;-85
2021/12/24 00:09:05;;;;;;;55.43;33.53;;;;;;;-2.36;68.68;92977.81;5069672;28;20212;-88
2021/12/24 00:11:32;;;;;;;49.77;31.43;;;;;;;-3.16;70.19;92876.50;5067148;28;20462;-89
2021/12/24 00:13:59;;;;;;;55.63;34.27;;;;;;;-2.87;69.89;92943.44;5069664;28;20185;-89
2021/12/24 00:16:33;;;;;;;63.23;38.50;;;;;;;-2.37;69.49;92950.69;5069806;28;20229;-87
2021/12/24 00:35:12;;;;;;;55.27;35.20;;;;;;;-2.22;69.21;92973.53;5069379;28;20232;-91
2021/12/24 00:37:40;;;;;;;52.43;32.83;;;;;;;-2.40;69.82;92978.41;5067565;28;20301;-88
2021/12/24 00:42:33;;;;;;;53.63;34.10;;;;;;;-2.60;69.87;92952.00;5069921;28;20205;-88
2021/12/24 00:44:59;;;;;;;57.50;35.93;;;;;;;-2.82;71.96;92956.41;5074069;28;20193;-89
2021/12/24 00:47:25;;;;;;;51.57;33.20;;;;;;;-2.75;71.64;92943.66;5073325;28;20217;-88
2021/12/24 00:49:52;;;;;;;43.40;31.17;;;;;;;-2.86;71.86;92946.78;5073494;28;20194;-89
2021/12/24 00:55:09;;;;;;;39.90;28.67;;;;;;;-2.58;70.68;92922.69;5074082;28;20204;-89
2021/12/24 00:57:38;;;;;;;34.73;26.37;;;;;;;-2.63;70.34;92898.72;5071494;28;20243;-91
2021/12/24 01:00:25;;;;;;;34.30;24.97;;;;;;;-2.88;70.64;92900.97;5072452;28;20213;-87
2021/12/24 01:02:52;;;;;;;38.73;24.23;;;;;;;-2.63;70.52;92919.91;5072872;28;20231;-85
2021/12/24 01:05:19;;;;;;;28.30;22.53;;;;;;;-3.12;69.39;92836.84;5071016;28;20273;-89
2021/12/24 01:07:45;;;;;;;27.73;20.27;;;;;;;-2.63;69.91;92925.03;5056410;28;20185;-89
2021/12/24 01:10:12;;;;;;;22.67;20.00;;;;;;;-2.95;69.60;92887.41;5073051;28;20185;-89
2021/12/24 01:12:37;;;;;;;21.10;18.90;;;;;;;-2.79;69.19;92887.06;5073017;28;20173;-89
2021/12/24 01:15:06;;;;;;;23.47;19.27;;;;;;;-2.80;69.72;92869.38;5073263;28;20257;-90
2021/12/24 01:20:20;;;;;;;19.87;16.63;;;;;;;-2.80;69.55;92874.50;5071974;28;20217;-86
2021/12/24 01:39:17;;;;;;;15.93;14.57;;;;;;;-2.30;66.90;92899.56;5072484;28;20223;-89
2021/12/24 01:44:28;;;;;;;16.97;15.47;;;;;;;-2.78;68.54;92888.63;5055450;28;20215;-91
2021/12/24 01:46:56;;;;;;;15.43;14.13;;;;;;;-2.79;68.47;92899.84;5071627;28;20240;-89
2021/12/24 01:49:23;;;;;;;18.23;16.53;;;;;;;-2.45;68.17;92906.63;5071516;28;20201;-89
2021/12/24 01:51:49;;;;;;;17.37;15.60;;;;;;;-2.34;67.50;92904.28;5071941;28;20221;-89
2021/12/24 01:54:14;;;;;;;17.17;15.50;;;;;;;-2.81;67.75;92860.94;5072038;28;20205;-91
2021/12/24 01:56:40;;;;;;;16.73;15.10;;;;;;;-2.87;68.27;92881.34;5071384;28;20225;-89
2021/12/24 01:59:05;;;;;;;22.27;19.17;;;;;;;-2.58;68.20;92889.47;5071994;28;20284;-89
2021/12/24 02:01:31;;;;;;;23.23;18.33;;;;;;;-2.70;68.74;92878.25;5072459;28;20297;-89
2021/12/24 02:03:56;;;;;;;25.50;21.27;;;;;;;-2.99;68.98;92865.78;5072238;28;20638;-87
2021/12/24 02:06:22;;;;;;;22.50;18.80;;;;;;;-3.21;69.80;92874.53;5071266;28;20229;-89
2021/12/24 02:08:47;;;;;;;25.90;19.87;;;;;;;-3.13;69.45;92868.47;5072354;28;20208;-90
2021/12/24 02:11:13;;;;;;;26.40;21.07;;;;;;;-3.24;69.56;92858.81;5071376;28;20221;-89
2021/12/24 02:13:39;;;;;;;25.40;20.37;;;;;;;-3.15;69.16;92852.56;5072060;28;20227;-89
2021/12/24 02:16:16;;;;;;;26.53;19.03;;;;;;;-3.17;70.05;92854.50;5071637;28;20221;-90
2021/12/24 02:29:39;;;;;;;16.10;14.50;;;;;;;-3.30;69.50;92850.16;5070426;28;20220;-88
2021/12/24 02:32:05;;;;;;;16.17;14.13;;;;;;;-3.20;69.72;92840.38;5072617;28;20217;-89
2021/12/24 02:34:31;;;;;;;17.47;15.93;;;;;;;-3.05;69.05;92838.44;5071872;28;20264;-87
2021/12/24 02:36:56;;;;;;;16.90;15.30;;;;;;;-2.94;67.99;92802.16;5070011;28;20251;-88
2021/12/24 02:39:22;;;;;;;15.93;14.33;;;;;;;-2.89;67.88;92815.13;5069692;28;20209;-89
2021/12/24 02:41:47;;;;;;;15.93;14.37;;;;;;;-3.02;67.24;92802.34;5070806;28;20232;-89
2021/12/24 02:44:13;;;;;;;16.00;14.50;;;;;;;-2.80;67.51;92801.19;5072185;28;20180;-90
2021/12/24 02:55:15;;;;;;;19.83;17.83;;;;;;;-3.41;68.68;92777.47;5052689;28;20647;-87
2021/12/24 02:57:41;;;;;;;20.97;16.50;;;;;;;-3.00;67.32;92810.56;5070915;28;20217;-89
2021/12/24 03:00:19;;;;;;;21.67;16.87;;;;;;;-3.41;67.60;92748.63;5070625;28;20263;-83
2021/12/24 03:02:47;;;;;;;18.63;16.67;;;;;;;-3.31;68.17;92777.09;5070761;28;20193;-87
2021/12/24 03:05:16;;;;;;;19.10;17.30;;;;;;;-3.08;68.09;92767.34;5068896;28;20199;-88
2021/12/24 03:07:42;;;;;;;20.30;16.73;;;;;;;-3.34;68.75;92785.16;5071149;28;20249;-88
2021/12/24 03:10:15;;;;;;;20.43;18.10;;;;;;;-3.48;69.34;92746.03;5070256;28;20257;-85
2021/12/24 03:12:43;;;;;;;27.37;21.13;;;;;;;-3.58;69.65;92790.75;5070508;28;20193;-88
2021/12/24 03:15:12;;;;;;;25.70;20.30;;;;;;;-3.55;70.00;92769.97;5091893;28;20212;-88
2021/12/24 03:17:38;;;;;;;28.67;20.63;;;;;;;-3.54;69.29;92784.28;5070618;28;20253;-88
2021/12/24 03:20:09;;;;;;;28.63;19.57;;;;;;;-3.49;69.01;92780.16;5070436;28;20247;-89
2021/12/24 03:23:04;;;;;;;34.03;22.13;;;;;;;-3.66;69.47;92776.38;5071073;28;20201;-88
2021/12/24 03:25:29;;;;;;;31.67;21.77;;;;;;;-3.43;68.57;92770.97;5069731;28;20301;-85
2021/12/24 03:27:55;;;;;;;32.23;21.73;;;;;;;-3.69;69.72;92730.06;5070458;28;20193;-88
2021/12/24 03:30:20;;;;;;;27.07;21.87;;;;;;;-3.18;67.08;92768.69;5070674;28;20193;-88
2021/12/24 03:32:46;;;;;;;26.20;20.17;;;;;;;-3.13;67.94;92756.94;5070720;28;20185;-88
2021/12/24 03:35:12;;;;;;;31.13;19.33;;;;;;;-3.20;67.57;92753.56;5069782;28;20193;-87
2021/12/24 03:37:37;;;;;;;23.00;18.90;;;;;;;-3.06;67.20;92778.16;5068292;28;20193;-88
2021/12/24 03:40:03;;;;;;;23.20;18.03;;;;;;;-3.37;68.20;92778.66;5070218;28;20205;-86
2021/12/24 03:42:30;;;;;;;26.20;17.83;;;;;;;-3.39;69.03;92797.69;5070164;28;20273;-88
2021/12/24 03:45:08;;;;;;;18.80;16.77;;;;;;;-3.54;68.63;92751.13;5069379;28;20193;-88
2021/12/24 03:47:38;;;;;;;21.53;17.33;;;;;;;-3.80;68.95;92745.91;5069725;28;20217;-88
2021/12/24 03:50:09;;;;;;;20.73;18.50;;;;;;;-3.50;68.96;92768.41;5069104;28;20216;-88
2021/12/24 03:55:00;;;;;;;20.63;16.43;;;;;;;-3.28;68.33;92752.97;5071617;28;20181;-85
2021/12/24 03:57:34;;;;;;;20.10;16.23;;;;;;;-3.41;69.22;92730.75;5069173;28;20367;-89
2021/12/24 04:00:12;;;;;;;21.90;16.93;;;;;;;-3.35;68.40;92692.47;5068433;28;20214;-88
2021/12/24 04:02:38;;;;;;;22.00;17.60;;;;;;;-3.21;68.42;92721.38;5069232;28;20209;-87
2021/12/24 04:05:05;;;;;;;20.63;16.93;;;;;;;-3.01;67.02;92745.19;5069967;28;20189;-89
2021/12/24 04:07:32;;;;;;;21.77;16.70;;;;;;;-3.01;67.38;92737.53;5067579;28;20221;-88
2021/12/24 04:10:17;;;;;;;22.20;17.20;;;;;;;-2.84;66.91;92748.94;5070616;28;20268;-88
2021/12/24 04:12:43;;;;;;;22.17;16.77;;;;;;;-3.07;67.40;92758.72;5069081;28;20217;-90
2021/12/24 04:15:09;;;;;;;20.17;17.20;;;;;;;-2.94;65.63;92752.84;5059165;28;20181;-88
2021/12/24 04:17:38;;;;;;;21.27;17.17;;;;;;;-2.97;65.52;92745.59;5092427;28;20186;-90
2021/12/24 04:25:28;;;;;;;19.43;17.03;;;;;;;-3.11;67.30;92732.00;5050594;28;20223;-89
2021/12/24 04:27:57;;;;;;;23.57;16.83;;;;;;;-3.15;67.21;92738.47;5049449;28;20194;-90
2021/12/24 04:30:28;;;;;;;19.53;17.10;;;;;;;-2.96;67.12;92744.59;5047120;28;20248;-88
2021/12/24 04:33:06;;;;;;;23.37;17.83;;;;;;;-2.87;67.43;92741.66;5050827;28;20194;-91
2021/12/24 04:35:41;;;;;;;21.83;17.50;;;;;;;-2.94;67.01;92738.31;5051924;28;20258;-89
2021/12/24 04:38:27;;;;;;;20.43;18.40;;;;;;;-3.89;66.84;92581.34;5069035;28;20192;-91
2021/12/24 04:51:55;;;;;;;25.17;18.43;;;;;;;-3.28;67.06;92712.91;5069534;28;20240;-91
2021/12/24 05:02:51;;;;;;;23.17;17.67;;;;;;;-3.01;68.09;92739.28;5069140;28;20265;-88
2021/12/24 05:10:20;;;;;;;23.70;18.33;;;;;;;-2.83;67.22;92760.72;5068481;28;20201;-90
2021/12/24 05:12:46;;;;;;;24.37;18.33;;;;;;;-3.10;68.25;92722.56;5069514;28;20196;-90
2021/12/24 05:15:11;;;;;;;25.57;18.77;;;;;;;-3.31;68.74;92733.72;5069134;28;20249;-86
2021/12/24 05:23:17;;;;;;;24.33;19.77;;;;;;;-2.65;67.14;92720.06;5069555;28;20204;-90
2021/12/24 05:25:45;;;;;;;29.60;20.00;;;;;;;-2.92;67.62;92713.38;5068021;28;20225;-85
2021/12/24 05:28:12;;;;;;;23.93;20.60;;;;;;;-2.58;67.40;92743.84;5067516;28;20200;-90
2021/12/24 05:30:40;;;;;;;23.07;18.27;;;;;;;-3.01;68.12;92703.53;5073237;28;20252;-89
2021/12/24 05:33:05;;;;;;;23.60;19.53;;;;;;;-2.88;67.25;92721.44;5072660;28;20193;-89
2021/12/24 05:35:30;;;;;;;23.97;19.93;;;;;;;-2.49;66.66;92740.09;5072311;28;20241;-89
2021/12/24 05:37:56;;;;;;;25.40;18.30;;;;;;;-2.67;67.15;92773.13;5072562;28;20197;-87
2021/12/24 05:40:22;;;;;;;31.93;19.23;;;;;;;-2.74;66.88;92721.22;5073063;28;20189;-89
2021/12/24 05:42:47;;;;;;;27.97;19.67;;;;;;;-2.48;66.68;92762.13;5073207;28;20245;-89
2021/12/24 05:45:13;;;;;;;22.93;17.13;;;;;;;-2.43;66.08;92744.41;5072091;28;20212;-84
2021/12/24 05:47:39;;;;;;;29.60;20.30;;;;;;;-2.36;66.30;92757.19;5072480;28;20204;-85
2021/12/24 05:50:05;;;;;;;24.67;19.47;;;;;;;-2.13;64.92;92744.78;5072666;28;20268;-85
2021/12/24 05:52:32;;;;;;;25.40;19.17;;;;;;;-2.34;66.12;92729.69;5071421;28;20209;-86
2021/12/24 05:54:58;;;;;;;23.80;18.27;;;;;;;-2.31;66.43;92740.31;5072277;28;20214;-90
2021/12/24 05:57:24;;;;;;;27.53;21.03;;;;;;;-2.22;65.56;92751.09;5071740;28;20245;-89
2021/12/24 05:59:49;;;;;;;23.30;20.40;;;;;;;-2.01;64.50;92705.63;5071611;28;20239;-90
2021/12/24 06:02:15;;;;;;;21.47;19.13;;;;;;;-2.18;66.22;92696.81;5070508;28;20221;-87
2021/12/24 06:04:40;;;;;;;25.23;18.77;;;;;;;-2.24;66.24;92720.63;5071909;28;20271;-83
2021/12/24 06:07:06;;;;;;;26.60;20.27;;;;;;;-2.22;66.10;92680.31;5069111;28;20217;-91
2021/12/24 06:09:31;;;;;;;20.87;18.60;;;;;;;-1.94;64.11;92696.16;5096545;28;20185;-90
2021/12/24 06:11:57;;;;;;;19.87;17.73;;;;;;;-1.89;64.42;92682.78;5069762;28;20229;-88
2021/12/24 06:14:22;;;;;;;22.77;17.87;;;;;;;-1.85;63.13;92705.19;5070869;28;20256;-88
2021/12/24 06:17:00;;;;;;;19.20;16.10;;;;;;;-1.39;62.26;92711.91;5071788;28;20222;-87
2021/12/24 06:19:26;;;;;;;23.70;19.23;;;;;;;-1.68;62.95;92705.50;5068870;28;20244;-88
2021/12/24 06:21:53;;;;;;;19.70;16.90;;;;;;;-1.39;62.68;92715.25;5070235;28;20233;-88
2021/12/24 06:24:19;;;;;;;23.20;17.07;;;;;;;-1.38;63.30;92729.63;5069073;28;20189;-90
2021/12/24 06:26:45;;;;;;;22.77;18.20;;;;;;;-1.38;62.82;92728.81;5071668;28;20236;-86
2021/12/24 06:29:11;;;;;;;20.23;17.17;;;;;;;-1.29;62.94;92750.66;5071134;28;20197;-90
2021/12/24 06:31:36;;;;;;;20.50;17.00;;;;;;;-1.29;63.12;92753.97;5069751;28;20213;-87
2021/12/24 06:34:02;;;;;;;27.60;19.37;;;;;;;-0.94;60.83;92767.22;5071164;28;20256;-88
2021/12/24 06:36:30;;;;;;;26.53;20.03;;;;;;;-1.17;61.49;92769.50;5069613;28;20220;-80
2021/12/24 06:38:55;;;;;;;23.77;18.90;;;;;;;-1.53;63.55;92767.50;5068496;28;20213;-83
2021/12/24 06:41:21;;;;;;;23.43;20.33;;;;;;;-0.97;61.88;92795.81;5068343;28;20232;-82
2021/12/24 06:43:46;;;;;;;26.77;20.57;;;;;;;-1.41;63.27;92775.31;5070762;28;20202;-82
2021/12/24 06:46:13;;;;;;;25.93;20.77;;;;;;;-1.12;63.33;92785.81;5069146;28;20236;-78
2021/12/24 06:48:41;;;;;;;26.50;21.60;;;;;;;-0.86;62.86;92797.72;5070281;28;20215;-76
2021/12/24 06:51:06;;;;;;;26.47;20.63;;;;;;;-1.17;63.36;92808.72;5069380;28;20252;-80
2021/12/24 06:53:32;;;;;;;26.23;21.30;;;;;;;-1.20;62.42;92703.34;5067125;28;20189;-81
2021/12/24 06:55:57;;;;;;;27.93;21.83;;;;;;;-1.03;63.63;92730.03;5068571;28;20267;-76
2021/12/24 06:58:23;;;;;;;25.37;20.30;;;;;;;-0.72;62.74;92778.72;5070379;28;20224;-81
2021/12/24 07:00:49;;;;;;;26.30;21.47;;;;;;;-0.59;61.54;92740.22;5068912;28;20233;-76
2021/12/24 07:03:14;;;;;;;27.93;23.17;;;;;;;-0.76;63.15;92764.75;5070253;28;20209;-76
2021/12/24 07:05:40;;;;;;;29.37;22.47;;;;;;;-0.75;62.44;92721.00;5068397;28;20244;-77
2021/12/24 07:08:05;;;;;;;33.67;23.27;;;;;;;-0.55;62.65;92760.09;5069324;28;20268;-77
2021/12/24 07:10:31;;;;;;;61.87;32.43;;;;;;;-0.28;61.13;92745.28;5068467;28;20221;-76
2021/12/24 07:12:56;;;;;;;33.80;24.37;;;;;;;-0.60;62.40;92754.78;5070047;28;20204;-77
2021/12/24 07:15:22;;;;;;;34.10;22.80;;;;;;;-0.15;60.07;92765.69;5067429;28;20244;-78
2021/12/24 07:17:48;;;;;;;34.83;23.60;;;;;;;-0.27;61.12;92759.69;5069638;28;20201;-78
2021/12/24 07:20:14;;;;;;;28.53;23.03;;;;;;;-0.40;61.64;92731.56;5068783;28;20755;-77
2021/12/24 07:22:39;;;;;;;40.23;23.10;;;;;;;-0.78;61.96;92666.81;5068619;28;20264;-77
2021/12/24 07:25:06;;;;;;;30.90;21.10;;;;;;;-0.51;61.16;92696.34;5068991;28;20700;-78
2021/12/24 07:27:33;;;;;;;26.30;20.67;;;;;;;-0.14;60.43;92695.44;5068510;28;20214;-76
2021/12/24 07:29:58;;;;;;;28.60;20.20;;;;;;;-0.30;61.51;92714.72;5069596;28;20212;-80
2021/12/24 07:32:24;;;;;;;27.93;21.17;;;;;;;-0.21;60.61;92726.28;5069031;28;20226;-81
2021/12/24 07:34:49;;;;;;;26.27;20.10;;;;;;;-0.49;60.61;92661.03;5069205;28;20216;-82
2021/12/24 07:37:15;;;;;;;27.90;21.60;;;;;;;-0.57;61.11;92674.91;5068631;28;20621;-80
2021/12/24 07:39:40;;;;;;;25.17;20.30;;;;;;;-0.35;61.15;92724.81;5066762;28;20238;-79
2021/12/24 07:42:07;;;;;;;29.37;21.77;;;;;;;-0.04;59.57;92739.34;5067605;28;20210;-78
2021/12/24 07:44:34;;;;;;;25.07;20.50;;;;;;;-0.47;59.78;92684.69;5068667;28;20208;-88
2021/12/24 07:47:02;;;;;;;28.37;19.57;;;;;;;-0.13;61.78;92754.22;5068895;28;20243;-89
2021/12/24 07:54:30;;;;;;;28.30;22.60;;;;;;;0.29;59.79;92757.00;5066577;28;20200;-79
2021/12/24 07:56:57;;;;;;;30.53;19.90;;;;;;;0.11;59.46;92708.97;5068611;28;20285;-78
2021/12/24 07:59:22;;;;;;;26.87;20.63;;;;;;;0.23;59.68;92765.53;5067539;28;20220;-83
2021/12/24 08:01:48;;;;;;;35.23;22.43;;;;;;;0.15;60.48;92748.66;5068565;28;20213;-81
2021/12/24 08:04:14;;;;;;;24.10;21.03;;;;;;;0.59;58.46;92757.84;5068764;28;20228;-86
2021/12/24 08:06:40;;;;;;;25.90;21.23;;;;;;;0.30;59.03;92748.28;5082561;28;20225;-81
2021/12/24 08:09:07;;;;;;;24.43;21.37;;;;;;;0.00;58.91;92720.75;5068677;28;20204;-81
2021/12/24 08:11:36;;;;;;;22.40;19.70;;;;;;;0.21;59.08;92717.00;5068961;28;20224;-88
2021/12/24 08:14:03;;;;;;;25.70;19.03;;;;;;;0.34;59.37;92754.56;5068629;28;20211;-83
2021/12/24 08:16:29;;;;;;;29.70;20.73;;;;;;;0.00;60.41;92737.94;5068819;28;20225;-85
2021/12/24 08:18:55;;;;;;;24.70;18.90;;;;;;;0.24;60.00;92759.41;5066406;28;20248;-83
2021/12/24 08:21:21;;;;;;;24.13;19.93;;;;;;;0.21;59.72;92762.41;5068013;28;20232;-82
2021/12/24 08:23:47;;;;;;;22.03;19.43;;;;;;;-0.25;60.24;92701.25;5068004;28;20182;-83
2021/12/24 08:26:13;;;;;;;24.60;18.97;;;;;;;-0.13;67.48;92740.63;5068567;28;20229;-85
2021/12/24 08:28:39;;;;;;;27.03;19.83;;;;;;;-0.06;60.33;92667.72;5068066;28;20204;-81
2021/12/24 08:31:04;;;;;;;26.17;18.27;;;;;;;0.09;60.60;92756.41;5067513;28;20270;-80
2021/12/24 08:33:30;;;;;;;29.87;19.77;;;;;;;0.12;60.67;92720.84;5066527;28;20248;-82
2021/12/24 08:35:56;;;;;;;31.30;23.10;;;;;;;0.38;59.66;92710.28;5067070;28;20229;-82
2021/12/24 08:38:21;;;;;;;49.73;30.80;;;;;;;0.33;60.29;92709.38;5067818;28;20216;-79
2021/12/24 08:40:47;;;;;;;34.40;25.20;;;;;;;0.37;59.98;92700.22;5068140;28;20237;-79
2021/12/24 08:43:12;;;;;;;36.27;26.40;;;;;;;0.42;59.69;92718.34;5068938;28;20181;-81
2021/12/24 08:45:38;;;;;;;52.47;31.77;;;;;;;0.81;58.52;92730.72;5068806;28;20239;-79
2021/12/24 08:48:04;;;;;;;57.30;32.40;;;;;;;0.79;57.79;92701.91;5069003;28;20185;-81
2021/12/24 08:50:29;;;;;;;49.70;31.27;;;;;;;0.21;58.80;92655.38;5067334;28;20233;-86
2021/12/24 08:52:55;;;;;;;57.30;30.90;;;;;;;0.92;57.82;92707.63;5069401;28;20219;-81
2021/12/24 08:55:20;;;;;;;53.60;32.37;;;;;;;0.69;58.11;92697.25;5068595;28;20260;-80
2021/12/24 08:57:46;;;;;;;43.33;28.63;;;;;;;0.76;58.23;92736.53;5066192;28;20232;-79
2021/12/24 09:00:14;;;;;;;43.30;27.07;;;;;;;0.96;58.70;92734.47;5067971;28;20709;-79
2021/12/24 09:02:40;;;;;;;51.23;29.03;;;;;;;0.78;59.38;92731.94;5068471;28;20281;-81
2021/12/24 09:05:07;;;;;;;35.80;24.63;;;;;;;0.82;58.60;92727.94;5071424;28;20193;-89
2021/12/24 09:07:33;;;;;;;40.00;25.77;;;;;;;0.76;58.94;92723.69;5071695;28;20197;-83
2021/12/24 09:09:58;;;;;;;39.53;24.97;;;;;;;0.88;59.19;92716.00;5070528;28;20221;-80
2021/12/24 09:12:24;;;;;;;34.70;24.57;;;;;;;1.18;57.78;92721.94;5071370;28;20225;-84
2021/12/24 09:14:50;;;;;;;33.57;25.40;;;;;;;1.05;58.58;92727.25;5071000;28;20193;-80
2021/12/24 09:17:16;;;;;;;35.20;25.73;;;;;;;1.26;58.06;92701.06;5071531;28;20221;-78
2021/12/24 09:19:47;;;;;;;38.20;25.63;;;;;;;1.34;58.56;92722.06;5070117;28;20207;-81
2021/12/24 09:22:21;;;;;;;36.87;23.93;;;;;;;1.48;57.87;92695.16;5071196;28;20285;-83
2021/12/24 09:24:49;;;;;;;36.13;25.83;;;;;;;1.25;58.60;92663.47;5071654;28;20200;-82
2021/12/24 09:27:15;;;;;;;34.27;25.50;;;;;;;1.18;58.97;92673.84;5070793;28;20233;-80
2021/12/24 09:29:42;;;;;;;27.97;22.27;;;;;;;1.59;57.83;92698.75;5071051;28;20185;-78
2021/12/24 09:32:08;;;;;;;29.40;23.40;;;;;;;1.23;58.49;92673.97;5071302;28;20240;-79
2021/12/24 09:34:33;;;;;;;28.83;22.33;;;;;;;1.38;59.12;92697.50;5070409;28;20240;-78
2021/12/24 09:37:17;;;;;;;24.43;21.90;;;;;;;1.13;58.77;92648.03;5070148;28;20229;-76
2021/12/24 09:39:43;;;;;;;27.77;21.83;;;;;;;1.31;59.15;92671.09;5070301;28;20217;-78
2021/12/24 09:42:09;;;;;;;27.50;20.37;;;;;;;1.66;58.26;92691.72;5071684;28;20591;-78
2021/12/24 09:44:35;;;;;;;27.00;19.90;;;;;;;1.43;58.51;92627.41;5071143;28;20276;-78
2021/12/24 09:47:01;;;;;;;27.70;20.90;;;;;;;2.00;58.31;92670.34;5070218;28;20238;-80
2021/12/24 09:49:26;;;;;;;32.63;21.80;;;;;;;1.77;58.11;92634.34;5071759;28;20181;-83
2021/12/24 09:51:52;;;;;;;25.07;17.87;;;;;;;1.88;57.96;92648.19;5071060;28;20220;-77
2021/12/24 09:54:23;;;;;;;24.97;18.53;;;;;;;1.94;58.68;92649.88;5070684;28;20309;-77
2021/12/24 09:56:50;;;;;;;22.00;19.60;;;;;;;2.02;58.19;92654.69;5068361;28;20229;-76
2021/12/24 09:59:15;;;;;;;23.10;20.33;;;;;;;2.01;58.95;92646.16;5070135;28;20290;-76
2021/12/24 10:01:49;;;;;;;24.83;19.00;;;;;;;2.18;58.78;92672.78;5070975;28;20228;-77
2021/12/24 10:04:19;;;;;;;26.73;19.73;;;;;;;2.17;58.12;92644.69;5070203;28;20204;-78
2021/12/24 10:06:51;;;;;;;23.60;19.50;;;;;;;2.23;58.46;92646.34;5071286;28;20221;-82
2021/12/24 10:09:16;;;;;;;21.93;19.60;;;;;;;2.23;58.90;92664.38;5069026;28;20190;-79
2021/12/24 10:11:56;;;;;;;22.50;19.27;;;;;;;2.54;57.92;92645.94;5071141;28;20248;-78
2021/12/24 10:14:29;;;;;;;21.33;19.13;;;;;;;2.63;58.25;92626.53;5070628;28;20186;-78
2021/12/24 10:16:54;;;;;;;25.10;19.10;;;;;;;2.49;58.67;92620.09;5067973;28;20217;-76
2021/12/24 10:19:20;;;;;;;21.33;19.03;;;;;;;2.41;57.70;92574.09;5068303;28;20224;-76
2021/12/24 10:21:47;;;;;;;28.80;20.47;;;;;;;2.90;57.13;92628.31;5070332;28;20229;-77
2021/12/24 10:24:18;;;;;;;21.63;19.00;;;;;;;2.83;57.25;92632.06;5070194;28;20177;-76
2021/12/24 10:26:52;;;;;;;21.73;19.40;;;;;;;2.79;56.94;92631.72;5070943;28;20255;-77
2021/12/24 10:29:20;;;;;;;19.93;17.77;;;;;;;2.90;56.93;92609.50;5068946;28;20209;-79
2021/12/24 10:31:50;;;;;;;21.83;19.50;;;;;;;2.81;57.14;92631.50;5069604;28;20241;-79
2021/12/24 10:34:18;;;;;;;22.37;19.37;;;;;;;2.90;57.53;92622.38;5069189;28;20628;-79
2021/12/24 10:36:54;;;;;;;23.20;19.50;;;;;;;2.98;56.65;92611.69;5067791;28;20350;-81
2021/12/24 10:39:41;;;;;;;26.47;19.73;;;;;;;2.99;56.91;92608.09;5069163;28;20213;-78
2021/12/24 10:42:17;;;;;;;21.93;19.27;;;;;;;3.05;57.50;92578.81;5063358;28;20314;-76
2021/12/24 10:44:45;;;;;;;23.37;19.77;;;;;;;3.06;58.25;92599.22;5069391;28;20189;-78
2021/12/24 10:47:23;;;;;;;27.57;20.53;;;;;;;3.23;57.16;92583.75;5068282;28;20240;-78
2021/12/24 10:50:26;;;;;;;23.73;20.07;;;;;;;3.48;56.43;92576.38;5069756;28;20191;-78
2021/12/24 10:53:14;;;;;;;22.13;19.87;;;;;;;3.44;56.42;92583.00;5069176;28;20210;-78
2021/12/24 10:55:50;;;;;;;23.40;20.97;;;;;;;3.63;57.18;92588.72;5068912;28;20230;-77
2021/12/24 10:58:19;;;;;;;24.90;20.07;;;;;;;3.55;55.57;92560.75;5069619;28;20236;-84
2021/12/24 11:00:52;;;;;;;26.07;20.50;;;;;;;3.66;56.21;92572.78;5069671;28;20313;-78
2021/12/24 11:03:22;;;;;;;36.63;21.23;;;;;;;3.63;57.83;92558.53;5068847;28;20208;-81
2021/12/24 11:05:54;;;;;;;24.10;21.23;;;;;;;3.87;56.98;92575.38;5069941;28;20236;-79
2021/12/24 11:08:23;;;;;;;36.07;21.10;;;;;;;3.70;57.13;92542.88;5069403;28;20192;-77
2021/12/24 11:10:55;;;;;;;23.63;19.93;;;;;;;4.26;54.85;92558.81;5067709;28;20745;-79
2021/12/24 11:13:28;;;;;;;23.80;20.13;;;;;;;4.17;55.65;92549.16;5085305;28;20173;-80
2021/12/24 11:15:54;;;;;;;23.33;18.70;;;;;;;4.26;56.45;92542.53;5066921;28;20225;-83
2021/12/24 11:18:22;;;;;;;26.73;20.13;;;;;;;4.31;55.69;92556.28;5069688;28;20180;-87
2021/12/24 11:23:05;;;;;;;25.63;19.37;;;;;;;4.60;54.27;92534.38;5075854;27;1347093;-85
2021/12/24 11:25:43;;;;;;;23.70;20.47;;;;;;;4.34;54.72;92514.44;5085568;28;20312;-79
2021/12/24 11:28:10;;;;;;;23.30;20.80;;;;;;;4.57;55.01;92540.03;5085794;28;20189;-85
2021/12/24 11:30:40;;;;;;;21.80;18.70;;;;;;;4.22;55.36;92498.31;5085207;28;20253;-90
2021/12/24 11:33:06;;;;;;;22.17;19.87;;;;;;;4.62;55.38;92532.31;5085176;28;20192;-83
2021/12/24 11:35:32;;;;;;;20.87;18.80;;;;;;;4.40;54.91;92528.22;5085161;28;20220;-87
2021/12/24 11:38:00;;;;;;;20.80;18.87;;;;;;;4.60;55.67;92513.69;5064297;28;20215;-82
2021/12/24 11:40:27;;;;;;;11.97;11.10;;;;;;;5.93;55.56;92523.72;5082012;28;20203;-79
2021/12/24 11:43:11;;;;;;;14.00;12.90;;;;;;;6.62;53.35;92510.47;5082897;28;20239;-82
2021/12/24 11:45:36;;;;;;;14.17;13.07;;;;;;;7.03;51.95;92528.44;5083212;28;20236;-86
2021/12/24 11:48:03;;;;;;;11.93;11.23;;;;;;;7.25;51.82;92521.19;5083591;28;20212;-85
2021/12/24 11:50:29;;;;;;;11.80;11.10;;;;;;;7.38;51.71;92525.06;5065136;28;20310;-86
2021/12/24 11:52:59;;;;;;;10.80;10.30;;;;;;;7.19;52.16;92490.28;5066404;28;20281;-85
2021/12/24 11:55:30;;;;;;;11.37;10.80;;;;;;;6.77;51.93;92414.53;5083245;28;20189;-87
2021/12/24 11:57:59;;;;;;;11.00;10.30;;;;;;;7.42;51.79;92542.47;5078203;28;20184;-84
2021/12/24 12:00:52;;;;;;;10.43;9.93;;;;;;;7.75;50.78;92541.91;5067089;28;20204;-86
2021/12/24 12:03:34;;;;;;;10.87;10.47;;;;;;;7.87;50.23;92565.81;5083397;28;20212;-81
2021/12/24 12:06:03;;;;;;;10.50;10.00;;;;;;;7.84;51.27;92547.34;5084091;28;20229;-82
2021/12/24 12:08:33;;;;;;;11.40;10.90;;;;;;;7.89;50.14;92532.53;5084546;28;20202;-89
2021/12/24 12:11:01;;;;;;;10.33;9.77;;;;;;;7.97;50.04;92539.78;5065816;28;20240;-83
2021/12/24 12:13:42;;;;;;;11.27;10.67;;;;;;;7.90;50.01;92531.50;5066248;28;20219;-90
2021/12/24 12:16:10;;;;;;;10.13;9.63;;;;;;;7.93;50.10;92538.75;5084573;28;20233;-86
2021/12/24 12:18:43;;;;;;;11.23;10.63;;;;;;;7.95;49.95;92534.06;5067036;28;20238;-89
2021/12/24 12:21:15;;;;;;;10.90;10.10;;;;;;;7.68;50.67;92525.03;5082437;28;20227;-86
2021/12/24 12:26:43;;;;;;;11.70;11.10;;;;;;;7.76;50.42;92532.28;5083821;28;20231;-80
2021/12/24 12:29:43;;;;;;;10.87;10.20;;;;;;;7.81;50.27;92525.25;5081921;28;20845;-87
2021/12/24 12:32:17;;;;;;;11.33;10.73;;;;;;;7.92;50.15;92518.25;5082421;28;20223;-88
2021/12/24 12:34:42;;;;;;;11.57;10.87;;;;;;;8.01;49.59;92520.03;5067942;28;20193;-89
2021/12/24 12:37:34;;;;;;;15.43;14.27;;;;;;;7.68;50.20;92479.06;5050076;28;20218;-85
2021/12/24 12:40:02;;;;;;;13.97;12.97;;;;;;;7.90;50.11;92497.72;5069587;28;20207;-83
2021/12/24 12:42:53;;;;;;;19.83;16.87;;;;;;;7.91;48.70;92494.06;5066812;28;20233;-85
2021/12/24 12:45:42;;;;;;;21.90;18.77;;;;;;;7.21;48.74;92418.88;5070931;28;20193;-82
2021/12/24 12:48:21;;;;;;;22.10;17.63;;;;;;;7.39;49.32;92461.72;5068941;28;20219;-85
2021/12/24 12:50:56;;;;;;;19.53;17.73;;;;;;;7.58;49.35;92473.13;5068034;28;20260;-87
2021/12/24 12:53:22;;;;;;;16.60;14.90;;;;;;;7.46;50.13;92496.75;5053344;28;20193;-89
2021/12/24 12:55:49;;;;;;;21.40;18.33;;;;;;;7.43;49.33;92470.53;5050772;28;20225;-83
2021/12/24 12:58:23;;;;;;;18.13;15.83;;;;;;;7.20;49.85;92456.28;5070551;28;20200;-87
2021/12/24 13:01:11;;;;;;;21.20;18.93;;;;;;;7.21;50.21;92465.63;5067584;28;20235;-87
2021/12/24 13:03:55;;;;;;;11.63;10.93;;;;;;;7.23;50.54;92480.94;5069366;28;20193;-93
2021/12/24 13:06:21;;;;;;;16.33;14.83;;;;;;;7.05;51.07;92469.25;5069922;28;20221;-90
2021/12/24 13:08:47;;;;;;;11.97;11.17;;;;;;;7.06;49.94;92421.50;5069726;28;20248;-91
2021/12/24 13:11:18;;;;;;;12.93;12.13;;;;;;;7.49;50.25;92495.44;5069130;28;20235;-81
2021/12/24 13:13:52;;;;;;;12.77;11.90;;;;;;;7.80;48.77;92482.13;5068937;28;20178;-91
2021/12/24 13:16:20;;;;;;;10.33;9.80;;;;;;;7.78;48.83;92492.00;5053600;28;20220;-81
2021/12/24 13:19:09;;;;;;;10.00;9.57;;;;;;;7.88;48.70;92489.38;5070297;28;20196;-80
2021/12/24 13:24:16;;;;;;;9.57;9.17;;;;;;;7.70;49.01;92471.78;5069560;28;20834;-81